createdAt,value
2023-03-16T00:00:56.211Z,6.80
2023-03-16T00:03:23.935Z,6.22
2023-03-16T00:05:54.172Z,6.37
2023-03-16T00:08:22.369Z,6.80
2023-03-16T00:10:52.247Z,6.47
2023-03-16T00:13:23.328Z,6.80
2023-03-16T00:15:58.507Z,7.03
2023-03-16T00:18:28.730Z,6.90
2023-03-16T00:21:01.780Z,8.33
2023-03-16T00:23:29.686Z,7.45
2023-03-16T00:26:01.526Z,8.33
2023-03-16T00:28:32.731Z,8.05
2023-03-16T00:31:02.736Z,7.80
2023-03-16T00:33:32.415Z,8.45
2023-03-16T00:36:02.434Z,8.30
2023-03-16T00:38:34.336Z,8.08
2023-03-16T00:41:04.283Z,7.37
2023-03-16T00:43:35.960Z,7.08
2023-03-16T00:46:05.642Z,7.15
2023-03-16T00:48:38.150Z,7.20
2023-03-16T00:51:09.530Z,7.55
2023-03-16T00:53:37.083Z,6.80
2023-03-16T00:56:06.399Z,6.30
2023-03-16T00:58:36.542Z,6.35
2023-03-16T01:01:09.269Z,7.45
2023-03-16T01:03:37.375Z,6.70
2023-03-16T01:06:10.481Z,6.50
2023-03-16T01:08:40.302Z,6.20
2023-03-16T01:11:12.824Z,6.00
2023-03-16T01:13:40.464Z,6.85
2023-03-16T01:16:10.294Z,6.60
2023-03-16T01:18:38.841Z,5.90
2023-03-16T01:21:08.697Z,6.62
2023-03-16T01:23:37.211Z,6.35
2023-03-16T01:26:05.579Z,6.17
2023-03-16T01:28:34.369Z,5.08
2023-03-16T01:31:09.601Z,5.42
2023-03-16T01:33:38.425Z,5.03
2023-03-16T01:36:14.638Z,4.78
2023-03-16T01:38:44.996Z,4.35
2023-03-16T01:41:15.437Z,4.25
2023-03-16T01:43:43.285Z,4.12
2023-03-16T01:46:25.375Z,4.62
2023-03-16T01:49:11.967Z,4.17
2023-03-16T01:51:53.491Z,4.40
2023-03-16T01:54:46.603Z,4.53
2023-03-16T01:57:25.103Z,4.83
2023-03-16T01:59:57.921Z,5.17
2023-03-16T02:02:29.986Z,4.75
2023-03-16T02:05:38.900Z,4.53
2023-03-16T02:08:10.128Z,5.72
2023-03-16T02:10:39.196Z,5.12
2023-03-16T02:13:07.354Z,4.58
2023-03-16T02:15:35.654Z,3.65
2023-03-16T02:18:06.859Z,3.08
2023-03-16T02:20:51.630Z,3.22
2023-03-16T02:23:22.019Z,3.40
2023-03-16T02:26:25.459Z,3.50
2023-03-16T02:29:29.276Z,3.37
2023-03-16T02:31:59.528Z,5.13
2023-03-16T02:34:28.831Z,4.45
2023-03-16T02:36:58.761Z,4.35
2023-03-16T02:39:26.573Z,4.45
2023-03-16T02:41:54.480Z,3.60
2023-03-16T02:44:34.204Z,3.50
2023-03-16T02:47:07.550Z,3.20
2023-03-16T02:49:42.453Z,3.70
2023-03-16T02:52:11.068Z,2.50
2023-03-16T02:54:44.481Z,2.42
2023-03-16T02:57:13.458Z,1.98
2023-03-16T02:59:44.769Z,1.57
2023-03-16T03:02:13.520Z,2.52
2023-03-16T03:04:47.390Z,1.52
2023-03-16T03:07:16.394Z,2.72
2023-03-16T03:09:48.105Z,2.10
2023-03-16T03:12:16.201Z,1.60
2023-03-16T03:14:44.509Z,1.00
2023-03-16T03:17:12.904Z,1.90
2023-03-16T03:19:41.661Z,1.30
2023-03-16T03:22:11.291Z,0.90
2023-03-16T03:24:39.618Z,0.80
2023-03-16T03:27:07.288Z,4.53
2023-03-16T03:29:36.099Z,1.55
2023-03-16T03:32:05.299Z,2.80
2023-03-16T03:34:33.155Z,8.43
2023-03-16T03:37:00.762Z,3.27
2023-03-16T03:39:28.926Z,0.80
2023-03-16T03:41:56.535Z,0.70
2023-03-16T03:44:26.322Z,0.55
2023-03-16T03:46:56.564Z,0.60
2023-03-16T03:49:26.521Z,0.68
2023-03-16T03:51:55.134Z,0.60
2023-03-16T03:54:25.180Z,0.50
2023-03-16T03:56:54.647Z,0.60
2023-03-16T03:59:22.687Z,8.63
2023-03-16T04:02:07.190Z,1.40
2023-03-16T04:04:41.669Z,1.30
2023-03-16T04:07:11.088Z,0.90
2023-03-16T04:09:39.390Z,0.70
2023-03-16T04:12:08.414Z,1.50
2023-03-16T04:14:36.284Z,1.50
2023-03-16T04:17:06.898Z,0.88
2023-03-16T04:19:35.997Z,0.90
2023-03-16T04:22:04.639Z,0.80
2023-03-16T04:24:34.070Z,1.20
2023-03-16T04:27:02.398Z,0.60
2023-03-16T04:29:30.044Z,1.17
2023-03-16T04:31:58.234Z,4.58
2023-03-16T04:34:26.377Z,1.92
2023-03-16T04:36:55.986Z,0.85
2023-03-16T04:39:23.932Z,0.75
2023-03-16T04:41:51.534Z,1.27
2023-03-16T04:44:20.942Z,1.55
2023-03-16T04:46:49.788Z,3.58
2023-03-16T04:49:18.333Z,5.17
2023-03-16T04:51:46.252Z,4.15
2023-03-16T04:54:15.921Z,8.20
2023-03-16T04:56:44.345Z,9.30
2023-03-16T04:59:29.424Z,14.05
2023-03-16T05:02:04.841Z,4.40
2023-03-16T05:04:33.951Z,5.95
2023-03-16T05:07:01.525Z,9.35
2023-03-16T05:09:31.006Z,7.75
2023-03-16T05:11:58.948Z,11.83
2023-03-16T05:14:27.130Z,5.65
2023-03-16T05:17:14.202Z,5.47
2023-03-16T05:19:42.234Z,3.27
2023-03-16T05:22:10.614Z,8.10
2023-03-16T05:24:39.185Z,6.87
2023-03-16T05:27:07.013Z,5.45
2023-03-16T05:29:34.941Z,3.60
2023-03-16T05:32:03.180Z,4.58
2023-03-16T05:34:32.260Z,6.03
2023-03-16T05:36:59.956Z,13.10
2023-03-16T05:39:28.090Z,7.62
2023-03-16T05:41:56.066Z,12.58
2023-03-16T05:44:25.773Z,2.92
2023-03-16T05:47:04.022Z,5.42
2023-03-16T05:49:33.368Z,3.27
2023-03-16T05:52:03.629Z,3.10
2023-03-16T05:54:32.940Z,4.37
2023-03-16T05:57:00.557Z,5.22
2023-03-16T05:59:28.938Z,3.40
2023-03-16T06:01:57.774Z,3.77
2023-03-16T06:04:26.873Z,2.92
2023-03-16T06:06:54.789Z,2.58
2023-03-16T06:09:24.515Z,2.42
2023-03-16T06:11:52.264Z,1.57
2023-03-16T06:14:20.981Z,1.40
2023-03-16T06:16:48.745Z,2.40
2023-03-16T06:19:16.984Z,3.20
2023-03-16T06:21:45.474Z,2.62
2023-03-16T06:24:13.417Z,1.87
2023-03-16T06:26:41.205Z,1.90
2023-03-16T06:29:11.255Z,1.27
2023-03-16T06:31:40.328Z,1.87
2023-03-16T06:34:08.271Z,2.17
2023-03-16T06:36:38.068Z,1.62
2023-03-16T06:39:06.744Z,6.05
2023-03-16T06:41:39.085Z,4.92
2023-03-16T06:44:07.145Z,4.67
2023-03-16T06:46:37.378Z,3.15
2023-03-16T06:49:05.303Z,2.83
2023-03-16T06:51:33.477Z,2.22
2023-03-16T06:54:01.482Z,2.60
2023-03-16T06:56:31.163Z,1.70
2023-03-16T06:58:59.053Z,1.70
2023-03-16T07:01:27.056Z,1.57
2023-03-16T07:03:54.846Z,2.85
2023-03-16T07:06:42.529Z,2.08
2023-03-16T07:09:29.540Z,2.40
2023-03-16T07:11:57.066Z,2.35
2023-03-16T07:14:25.737Z,2.25
2023-03-16T07:16:54.295Z,2.40
2023-03-16T07:19:22.771Z,5.10
2023-03-16T07:21:51.067Z,4.15
2023-03-16T07:24:20.619Z,2.87
2023-03-16T07:26:48.597Z,1.90
2023-03-16T07:29:18.184Z,1.75
2023-03-16T07:31:46.331Z,1.77
2023-03-16T07:34:16.011Z,3.47
2023-03-16T07:36:47.666Z,2.00
2023-03-16T07:39:17.210Z,2.98
2023-03-16T07:41:44.848Z,2.10
2023-03-16T07:44:17.594Z,1.82
2023-03-16T07:46:47.362Z,1.67
2023-03-16T07:49:16.296Z,1.80
2023-03-16T07:51:44.169Z,2.58
2023-03-16T07:54:13.548Z,1.90
2023-03-16T07:56:48.862Z,1.57
2023-03-16T07:59:12.984Z,1.80
2023-03-16T08:01:41.141Z,2.15
2023-03-16T08:04:11.831Z,4.00
2023-03-16T08:06:39.609Z,2.83
2023-03-16T08:09:07.935Z,1.42
2023-03-16T08:11:37.627Z,1.05
2023-03-16T08:14:06.418Z,0.90
2023-03-16T08:16:44.611Z,0.90
2023-03-16T08:19:12.713Z,0.85
2023-03-16T08:21:59.762Z,0.85
2023-03-16T08:24:11.526Z,1.10
2023-03-16T08:26:40.229Z,1.35
2023-03-16T08:29:08.458Z,1.20
2023-03-16T08:31:36.930Z,1.52
2023-03-16T08:34:10.379Z,1.57
2023-03-16T08:36:39.953Z,1.90
2023-03-16T08:39:07.908Z,1.35
2023-03-16T08:41:40.727Z,1.32
2023-03-16T08:44:10.477Z,1.30
2023-03-16T08:46:38.817Z,0.95
2023-03-16T08:49:06.802Z,1.70
2023-03-16T08:51:34.583Z,1.50
2023-03-16T08:54:02.826Z,1.50
2023-03-16T08:56:32.035Z,1.30
2023-03-16T08:58:59.661Z,2.17
2023-03-16T09:01:27.513Z,2.10
2023-03-16T09:03:55.376Z,2.20
2023-03-16T09:06:23.970Z,2.22
2023-03-16T09:08:52.415Z,2.30
2023-03-16T09:11:21.710Z,1.60
2023-03-16T09:13:52.419Z,1.90
2023-03-16T09:16:22.093Z,2.30
2023-03-16T09:18:49.842Z,2.30
2023-03-16T09:21:18.106Z,1.72
2023-03-16T09:23:45.999Z,1.90
2023-03-16T09:26:14.597Z,1.85
2023-03-16T09:28:42.480Z,1.40
2023-03-16T09:31:19.404Z,1.72
2023-03-16T09:33:47.578Z,1.60
2023-03-16T09:36:15.736Z,1.40
2023-03-16T09:38:44.441Z,1.42
2023-03-16T09:41:40.574Z,1.98
2023-03-16T09:44:39.446Z,1.07
2023-03-16T09:47:10.882Z,1.20
2023-03-16T09:49:44.062Z,1.30
2023-03-16T09:52:42.479Z,1.30
2023-03-16T09:55:31.572Z,1.57
2023-03-16T09:58:01.557Z,2.95
2023-03-16T10:00:40.924Z,1.82
2023-03-16T10:03:21.098Z,1.60
2023-03-16T10:05:54.319Z,1.60
2023-03-16T10:08:42.799Z,1.57
2023-03-16T10:11:33.998Z,1.80
2023-03-16T10:14:22.455Z,2.08
2023-03-16T10:17:02.555Z,2.00
2023-03-16T10:19:53.658Z,1.80
2023-03-16T10:22:29.433Z,1.50
2023-03-16T10:25:45.294Z,2.35
2023-03-16T10:28:20.723Z,3.00
2023-03-16T10:30:51.670Z,2.75
2023-03-16T10:33:30.049Z,2.17
2023-03-16T10:36:21.071Z,1.30
2023-03-16T10:38:59.229Z,2.20
2023-03-16T10:41:34.879Z,2.70
2023-03-16T10:44:16.325Z,2.55
2023-03-16T10:46:50.744Z,3.83
2023-03-16T10:49:28.420Z,2.42
2023-03-16T10:52:00.474Z,4.87
2023-03-16T10:54:34.907Z,3.87
2023-03-16T10:57:16.620Z,2.85
2023-03-16T10:59:52.340Z,1.70
2023-03-16T11:02:27.013Z,1.90
2023-03-16T11:04:56.001Z,1.70
2023-03-16T11:07:25.203Z,2.27
2023-03-16T11:09:55.521Z,3.12
2023-03-16T11:12:30.813Z,2.25
2023-03-16T11:15:25.169Z,1.77
2023-03-16T11:17:51.443Z,2.20
2023-03-16T11:20:28.048Z,2.55
2023-03-16T11:22:56.263Z,2.47
2023-03-16T11:25:37.344Z,2.75
2023-03-16T11:28:16.370Z,2.40
2023-03-16T11:33:58.325Z,2.10
2023-03-16T11:36:37.309Z,2.08
2023-03-16T11:39:40.042Z,2.87
2023-03-16T11:42:15.814Z,2.58
2023-03-16T11:45:04.999Z,2.05
2023-03-16T11:47:38.024Z,2.52
2023-03-16T11:50:29.662Z,2.17
2023-03-16T11:53:22.190Z,2.17
2023-03-16T11:55:59.094Z,2.22
2023-03-16T11:58:48.891Z,1.82
2023-03-16T12:01:39.434Z,2.77
2023-03-16T12:04:46.046Z,2.02
2023-03-16T12:07:20.062Z,1.90
2023-03-16T12:10:29.576Z,2.30
2023-03-16T12:13:24.466Z,1.80
2023-03-16T12:15:57.464Z,2.42
2023-03-16T12:19:06.279Z,2.12
2023-03-16T12:21:45.021Z,3.42
2023-03-16T12:24:21.528Z,2.25
2023-03-16T12:26:49.650Z,2.50
2023-03-16T12:29:42.251Z,2.67
2023-03-16T12:32:21.238Z,3.52
2023-03-16T12:34:54.129Z,4.87
2023-03-16T12:37:48.647Z,3.20
2023-03-16T12:40:40.130Z,2.80
2023-03-16T12:43:25.668Z,2.52
2023-03-16T12:46:07.786Z,2.30
2023-03-16T12:48:44.057Z,2.80
2023-03-16T12:51:13.748Z,2.30
2023-03-16T12:53:52.819Z,2.40
2023-03-16T12:56:31.498Z,2.70
2023-03-16T12:59:02.826Z,2.40
2023-03-16T13:01:38.088Z,2.20
2023-03-16T13:04:23.157Z,2.50
2023-03-16T13:07:04.731Z,2.80
2023-03-16T13:09:36.644Z,3.30
2023-03-16T13:12:06.072Z,2.42
2023-03-16T13:14:41.188Z,2.50
2023-03-16T13:17:23.025Z,2.62
2023-03-16T13:20:29.177Z,2.60
2023-03-16T13:22:52.738Z,2.37
2023-03-16T13:25:31.800Z,2.67
2023-03-16T13:28:00.152Z,2.60
2023-03-16T13:30:33.836Z,1.98
2023-03-16T13:35:46.508Z,2.00
2023-03-16T13:38:16.969Z,1.62
2023-03-16T13:40:54.778Z,1.70
2023-03-16T13:43:32.074Z,1.55
2023-03-16T13:46:00.537Z,1.62
2023-03-16T13:48:29.398Z,1.50
2023-03-16T13:50:58.351Z,1.35
2023-03-16T13:53:29.976Z,1.10
2023-03-16T13:56:01.821Z,1.17
2023-03-16T13:58:35.411Z,1.00
2023-03-16T14:01:07.764Z,1.50
2023-03-16T14:03:39.090Z,1.37
2023-03-16T14:06:10.467Z,2.00
2023-03-16T14:08:40.130Z,1.70
2023-03-16T14:11:10.202Z,1.72
2023-03-16T14:13:38.983Z,1.47
2023-03-16T14:16:17.173Z,1.62
2023-03-16T14:19:07.888Z,2.20
2023-03-16T14:21:36.579Z,2.27
2023-03-16T14:24:07.271Z,2.08
2023-03-16T14:26:45.990Z,2.10
2023-03-16T14:29:31.633Z,2.52
2023-03-16T14:31:59.887Z,1.85
2023-03-16T14:34:33.486Z,2.10
2023-03-16T14:39:41.295Z,2.15
2023-03-16T14:42:26.852Z,1.60
2023-03-16T14:44:56.684Z,1.77
2023-03-16T14:47:30.276Z,2.25
2023-03-16T14:50:06.257Z,2.02
2023-03-16T14:52:35.025Z,1.80
2023-03-16T14:55:14.023Z,2.05
2023-03-16T14:57:44.608Z,3.10
2023-03-16T15:00:17.451Z,3.40
2023-03-16T15:03:06.064Z,3.10
2023-03-16T15:05:38.534Z,2.80
2023-03-16T15:08:15.262Z,3.15
2023-03-16T15:10:44.868Z,3.50
2023-03-16T15:13:40.134Z,3.35
2023-03-16T15:16:11.922Z,2.77
2023-03-16T15:18:41.288Z,3.33
2023-03-16T15:21:22.191Z,3.45
2023-03-16T15:23:49.916Z,4.37
2023-03-16T15:26:24.561Z,4.28
2023-03-16T15:31:18.604Z,3.80
2023-03-16T15:33:46.459Z,3.10
2023-03-16T15:36:21.612Z,5.70
2023-03-16T15:38:52.715Z,4.47
2023-03-16T15:41:20.846Z,3.90
2023-03-16T15:43:48.622Z,4.33
2023-03-16T15:46:16.558Z,3.90
2023-03-16T15:48:44.389Z,4.20
2023-03-16T15:51:22.865Z,6.90
2023-03-16T15:53:58.828Z,6.87
2023-03-16T15:56:32.239Z,5.10
2023-03-16T15:59:05.567Z,4.37
2023-03-16T16:01:38.998Z,3.92
2023-03-16T16:04:15.112Z,3.20
2023-03-16T16:06:43.205Z,4.08
2023-03-16T16:09:10.921Z,3.30
2023-03-16T16:11:40.762Z,3.98
2023-03-16T16:14:15.121Z,4.00
2023-03-16T16:16:47.788Z,4.05
2023-03-16T16:19:16.242Z,5.47
2023-03-16T16:21:44.165Z,5.42
2023-03-16T16:24:11.996Z,4.92
2023-03-16T16:26:56.170Z,4.85
2023-03-16T16:29:26.673Z,3.70
2023-03-16T16:31:54.688Z,3.20
2023-03-16T16:34:24.023Z,3.40
2023-03-16T16:36:53.352Z,3.52
2023-03-16T16:39:21.719Z,4.10
2023-03-16T16:41:53.575Z,4.22
2023-03-16T16:44:26.684Z,6.08
2023-03-16T16:46:54.783Z,11.63
2023-03-16T16:49:30.066Z,15.08
2023-03-16T16:51:58.501Z,15.68
2023-03-16T16:54:29.968Z,11.95
2023-03-16T16:57:00.221Z,9.53
2023-03-16T16:59:34.252Z,9.08
2023-03-16T17:02:06.459Z,11.78
2023-03-16T17:04:34.351Z,15.30
2023-03-16T17:07:02.358Z,15.85
2023-03-16T17:09:30.494Z,13.65
2023-03-16T17:12:00.820Z,15.10
2023-03-16T17:14:30.330Z,16.77
2023-03-16T17:17:04.393Z,20.37
2023-03-16T17:19:32.248Z,17.82
2023-03-16T17:22:00.931Z,13.10
2023-03-16T17:24:29.538Z,17.02
2023-03-16T17:26:59.981Z,18.12
2023-03-16T17:29:33.468Z,17.17
2023-03-16T17:32:04.304Z,12.60
2023-03-16T17:34:33.884Z,8.13
2023-03-16T17:37:02.350Z,9.10
2023-03-16T17:39:33.436Z,6.12
2023-03-16T17:42:06.665Z,7.03
2023-03-16T17:44:39.414Z,12.45
2023-03-16T17:47:26.853Z,21.45
2023-03-16T17:49:56.333Z,14.75
2023-03-16T17:52:27.860Z,11.45
2023-03-16T17:54:55.596Z,13.28
2023-03-16T17:57:28.554Z,15.08
2023-03-16T17:59:56.744Z,23.35
2023-03-16T18:02:55.597Z,21.82
2023-03-16T18:05:34.190Z,17.85
2023-03-16T18:08:26.111Z,26.00
2023-03-16T18:11:07.198Z,29.65
2023-03-16T18:13:38.671Z,28.20
2023-03-16T18:16:07.706Z,25.70
2023-03-16T18:18:42.296Z,24.30
2023-03-16T18:21:19.412Z,20.68
2023-03-16T18:23:48.803Z,21.27
2023-03-16T18:26:17.533Z,22.77
2023-03-16T18:28:45.984Z,25.00
2023-03-16T18:31:25.824Z,26.17
2023-03-16T18:34:00.225Z,24.82
2023-03-16T18:36:37.334Z,24.18
2023-03-16T18:39:09.809Z,26.82
2023-03-16T18:41:37.707Z,25.50
2023-03-16T18:44:25.350Z,26.55
2023-03-16T18:46:58.580Z,28.20
2023-03-16T18:49:35.976Z,27.45
2023-03-16T18:52:07.964Z,27.02
2023-03-16T18:54:35.773Z,24.15
2023-03-16T18:57:05.265Z,23.50
2023-03-16T18:59:32.727Z,25.97
2023-03-16T19:02:00.940Z,19.80
2023-03-16T19:04:32.545Z,13.20
2023-03-16T19:07:00.273Z,9.73
2023-03-16T19:09:30.600Z,8.45
2023-03-16T19:11:59.111Z,7.20
2023-03-16T19:14:34.556Z,8.70
2023-03-16T19:17:02.543Z,10.28
2023-03-16T19:19:30.315Z,10.10
2023-03-16T19:22:15.321Z,8.68
2023-03-16T19:24:50.539Z,9.45
2023-03-16T19:27:28.534Z,9.68
2023-03-16T19:29:56.241Z,11.85
2023-03-16T19:32:23.932Z,11.10
2023-03-16T19:34:51.693Z,12.15
2023-03-16T19:37:19.362Z,12.47
2023-03-16T19:39:47.144Z,14.50
2023-03-16T19:42:25.613Z,12.13
2023-03-16T19:44:53.083Z,10.43
2023-03-16T19:47:35.810Z,7.00
2023-03-16T19:50:14.007Z,6.60
2023-03-16T19:52:41.977Z,6.97
2023-03-16T19:55:14.020Z,7.83
2023-03-16T19:57:42.496Z,7.42
2023-03-16T20:00:24.785Z,6.30
2023-03-16T20:02:55.860Z,6.28
2023-03-16T20:05:28.380Z,6.53
2023-03-16T20:08:00.879Z,7.50
2023-03-16T20:10:31.467Z,11.30
2023-03-16T20:13:01.361Z,12.25
2023-03-16T20:15:32.738Z,12.80
2023-03-16T20:18:00.443Z,15.90
2023-03-16T20:20:33.067Z,16.25
2023-03-16T20:23:00.931Z,15.05
2023-03-16T20:25:34.554Z,16.07
2023-03-16T20:28:03.299Z,15.93
2023-03-16T20:30:31.368Z,11.05
2023-03-16T20:32:59.001Z,7.83
2023-03-16T20:35:31.822Z,7.30
2023-03-16T20:37:59.715Z,8.35
2023-03-16T20:40:27.781Z,9.70
2023-03-16T20:42:55.929Z,11.68
2023-03-16T20:45:30.021Z,11.03
2023-03-16T20:47:57.840Z,11.80
2023-03-16T20:50:29.426Z,10.28
2023-03-16T20:52:57.539Z,9.73
2023-03-16T20:55:28.566Z,9.03
2023-03-16T20:57:57.032Z,8.90
2023-03-16T21:00:34.938Z,8.75
2023-03-16T21:03:07.125Z,7.22
2023-03-16T21:05:35.204Z,7.05
2023-03-16T21:08:03.117Z,7.20
2023-03-16T21:10:31.300Z,6.55
2023-03-16T21:12:59.090Z,5.92
2023-03-16T21:15:32.843Z,4.53
2023-03-16T21:18:04.179Z,5.10
2023-03-16T21:20:35.052Z,4.22
2023-03-16T21:23:03.510Z,4.20
2023-03-16T21:25:39.407Z,3.47
2023-03-16T21:28:10.300Z,4.60
2023-03-16T21:30:42.776Z,4.47
2023-03-16T21:33:18.664Z,4.10
2023-03-16T21:35:46.599Z,3.80
2023-03-16T21:38:18.821Z,3.80
2023-03-16T21:40:48.149Z,3.60
2023-03-16T21:43:16.732Z,3.87
2023-03-16T21:45:46.255Z,6.42
2023-03-16T21:48:19.602Z,5.37
2023-03-16T21:50:48.011Z,5.20
2023-03-16T21:53:21.666Z,5.10
2023-03-16T21:58:19.018Z,4.95
2023-03-16T22:00:47.637Z,5.42
2023-03-16T22:03:48.008Z,6.87
2023-03-16T22:06:01.829Z,8.45
2023-03-16T22:08:33.868Z,9.18
2023-03-16T22:11:02.518Z,9.33
2023-03-16T22:13:29.964Z,8.08
2023-03-16T22:15:58.413Z,7.58
2023-03-16T22:18:36.318Z,7.22
2023-03-16T22:21:35.853Z,8.80
2023-03-16T22:24:07.100Z,7.78
2023-03-16T22:26:35.172Z,10.75
2023-03-16T22:29:27.590Z,11.50
2023-03-16T22:32:06.392Z,9.00
2023-03-16T22:34:56.440Z,7.97
2023-03-16T22:37:28.861Z,8.98
2023-03-16T22:39:58.508Z,7.70
2023-03-16T22:42:36.393Z,8.55
2023-03-16T22:45:21.152Z,7.35
2023-03-16T22:47:49.590Z,8.95
2023-03-16T22:50:21.028Z,30.75
2023-03-16T22:52:52.760Z,19.92
2023-03-16T22:55:33.793Z,19.37
2023-03-16T22:58:24.570Z,17.37
2023-03-16T23:00:52.475Z,12.25
2023-03-16T23:03:22.790Z,9.83
2023-03-16T23:05:50.601Z,7.92
2023-03-16T23:08:22.717Z,7.25
2023-03-16T23:10:53.972Z,7.00
2023-03-16T23:13:24.747Z,7.25
2023-03-16T23:15:53.363Z,10.60
2023-03-16T23:18:24.863Z,9.15
2023-03-16T23:20:52.834Z,10.20
2023-03-16T23:23:20.767Z,11.28
2023-03-16T23:25:48.747Z,13.32
2023-03-16T23:28:21.075Z,15.25
2023-03-16T23:30:49.212Z,18.77
2023-03-16T23:33:17.209Z,11.75
2023-03-16T23:35:45.966Z,13.18
2023-03-16T23:38:13.673Z,10.03
2023-03-16T23:40:41.626Z,11.57
2023-03-16T23:43:09.499Z,9.80
2023-03-16T23:45:42.715Z,10.30
2023-03-16T23:48:18.494Z,9.80
2023-03-16T23:50:50.307Z,9.55
2023-03-16T23:53:19.926Z,11.53
2023-03-16T23:55:48.259Z,11.60
2023-03-16T23:58:16.552Z,9.28
